createdAt,value
2018-02-04T00:00:39.682Z,16.80
2018-02-04T00:01:39.655Z,15.60
2018-02-04T00:02:39.613Z,17.90
2018-02-04T00:03:39.604Z,18.30
2018-02-04T00:04:39.794Z,16.30
2018-02-04T00:05:39.517Z,17.30
2018-02-04T00:06:39.483Z,16.50
2018-02-04T00:07:39.447Z,20.70
2018-02-04T00:08:39.428Z,17.40
2018-02-04T00:09:39.377Z,19.10
2018-02-04T00:10:39.342Z,16.70
2018-02-04T00:11:39.321Z,19.90
2018-02-04T00:12:39.280Z,20.90
2018-02-04T00:13:39.243Z,18.80
2018-02-04T00:14:39.216Z,19.80
2018-02-04T00:15:39.485Z,19.70
2018-02-04T00:16:39.141Z,19.10
2018-02-04T00:17:39.113Z,21.00
2018-02-04T00:18:39.075Z,23.20
2018-02-04T00:19:39.039Z,19.20
2018-02-04T00:20:39.006Z,21.60
2018-02-04T00:21:39.225Z,21.60
2018-02-04T00:22:38.945Z,20.60
2018-02-04T00:23:38.907Z,35.90
2018-02-04T00:24:38.875Z,25.30
2018-02-04T00:25:38.839Z,24.30
2018-02-04T00:26:38.806Z,24.40
2018-02-04T00:27:38.777Z,25.80
2018-02-04T00:28:38.744Z,24.30
2018-02-04T00:29:38.706Z,24.40
2018-02-04T00:30:38.675Z,22.60
2018-02-04T00:31:38.641Z,23.80
2018-02-04T00:32:38.614Z,22.70
2018-02-04T00:33:38.578Z,22.60
2018-02-04T00:34:38.534Z,21.30
2018-02-04T00:35:38.499Z,23.00
2018-02-04T00:36:38.464Z,24.20
2018-02-04T00:37:38.647Z,24.80
2018-02-04T00:38:38.408Z,23.30
2018-02-04T00:39:38.365Z,23.70
2018-02-04T00:40:38.335Z,25.60
2018-02-04T00:41:38.301Z,23.10
2018-02-04T00:42:38.267Z,25.20
2018-02-04T00:43:38.240Z,24.90
2018-02-04T00:44:38.201Z,24.20
2018-02-04T00:45:38.166Z,25.10
2018-02-04T00:46:38.140Z,24.10
2018-02-04T00:47:38.103Z,24.70
2018-02-04T00:48:38.066Z,23.20
2018-02-04T00:49:38.034Z,24.80
2018-02-04T00:50:38.003Z,22.70
2018-02-04T00:51:37.960Z,26.10
2018-02-04T00:52:37.928Z,26.00
2018-02-04T00:53:37.900Z,24.60
2018-02-04T00:54:37.860Z,25.50
2018-02-04T00:55:37.828Z,25.20
2018-02-04T00:56:37.791Z,27.20
2018-02-04T00:57:38.019Z,23.90
2018-02-04T00:58:37.730Z,23.60
2018-02-04T00:59:37.695Z,23.40
2018-02-04T01:00:37.663Z,24.90
2018-02-04T01:01:37.631Z,24.70
2018-02-04T01:02:37.594Z,23.80
2018-02-04T01:03:37.574Z,25.40
2018-02-04T01:04:37.525Z,21.80
2018-02-04T01:05:37.500Z,21.40
2018-02-04T01:06:37.469Z,17.70
2018-02-04T01:07:37.428Z,22.40
2018-02-04T01:08:37.390Z,26.00
2018-02-04T01:09:37.353Z,20.80
2018-02-04T01:10:37.321Z,20.50
2018-02-04T01:11:37.287Z,21.60
2018-02-04T01:12:37.262Z,18.40
2018-02-04T01:13:37.223Z,19.60
2018-02-04T01:14:39.141Z,20.70
2018-02-04T01:15:37.155Z,24.00
2018-02-04T01:16:37.114Z,20.90
2018-02-04T01:17:37.095Z,21.80
2018-02-04T01:18:37.050Z,17.70
2018-02-04T01:19:37.011Z,19.50
2018-02-04T01:20:37.231Z,19.60
2018-02-04T01:21:36.957Z,22.60
2018-02-04T01:22:36.914Z,20.50
2018-02-04T01:23:36.889Z,22.80
2018-02-04T01:24:36.857Z,25.90
2018-02-04T01:25:36.812Z,23.10
2018-02-04T01:26:36.774Z,24.60
2018-02-04T01:27:36.754Z,22.60
2018-02-04T01:28:36.714Z,25.20
2018-02-04T01:29:36.681Z,23.20
2018-02-04T01:30:36.645Z,28.10
2018-02-04T01:31:36.610Z,24.20
2018-02-04T01:32:36.825Z,24.00
2018-02-04T01:33:36.543Z,24.80
2018-02-04T01:34:36.506Z,23.10
2018-02-04T01:35:36.480Z,26.50
2018-02-04T01:36:36.437Z,27.30
2018-02-04T01:37:36.415Z,23.30
2018-02-04T01:38:36.371Z,24.40
2018-02-04T01:39:36.346Z,23.70
2018-02-04T01:40:36.301Z,26.90
2018-02-04T01:41:36.264Z,24.40
2018-02-04T01:42:36.238Z,26.20
2018-02-04T01:43:36.226Z,25.90
2018-02-04T01:44:36.173Z,26.50
2018-02-04T01:45:36.133Z,23.80
2018-02-04T01:46:36.099Z,25.10
2018-02-04T01:47:36.060Z,24.70
2018-02-04T01:48:36.030Z,27.80
2018-02-04T01:49:36.007Z,24.10
2018-02-04T01:50:36.264Z,23.40
2018-02-04T01:51:35.925Z,24.80
2018-02-04T01:52:35.896Z,28.00
2018-02-04T01:53:35.857Z,27.60
2018-02-04T01:54:35.826Z,25.30
2018-02-04T01:55:35.800Z,26.70
2018-02-04T01:56:35.766Z,27.50
2018-02-04T01:57:35.720Z,29.40
2018-02-04T01:58:35.690Z,25.70
2018-02-04T01:59:35.658Z,25.80
2018-02-04T02:00:35.622Z,27.50
2018-02-04T02:01:35.593Z,27.50
2018-02-04T02:02:35.559Z,27.70
2018-02-04T02:03:35.525Z,27.30
2018-02-04T02:04:35.486Z,28.40
2018-02-04T02:05:35.456Z,27.90
2018-02-04T02:06:35.463Z,28.10
2018-02-04T02:07:36.433Z,28.90
2018-02-04T02:08:35.352Z,27.70
2018-02-04T02:09:35.318Z,27.00
2018-02-04T02:10:35.280Z,27.60
2018-02-04T02:11:35.252Z,28.40
2018-02-04T02:12:35.217Z,27.20
2018-02-04T02:13:35.203Z,26.10
2018-02-04T02:14:35.152Z,28.60
2018-02-04T02:15:35.115Z,25.60
2018-02-04T02:16:35.092Z,25.40
2018-02-04T02:17:35.050Z,24.50
2018-02-04T02:18:35.018Z,28.10
2018-02-04T02:19:34.987Z,25.10
2018-02-04T02:20:34.942Z,24.80
2018-02-04T02:21:34.915Z,28.70
2018-02-04T02:22:34.886Z,27.50
2018-02-04T02:23:34.846Z,26.80
2018-02-04T02:24:34.810Z,27.50
2018-02-04T02:25:34.778Z,33.00
2018-02-04T02:26:34.743Z,27.10
2018-02-04T02:27:34.721Z,25.00
2018-02-04T02:28:34.682Z,27.40
2018-02-04T02:29:34.891Z,25.60
2018-02-04T02:30:34.613Z,26.80
2018-02-04T02:31:34.586Z,25.50
2018-02-04T02:32:34.545Z,26.50
2018-02-04T02:33:34.507Z,30.50
2018-02-04T02:34:34.477Z,30.40
2018-02-04T02:35:34.735Z,28.30
2018-02-04T02:36:34.404Z,30.90
2018-02-04T02:37:34.377Z,32.20
2018-02-04T02:38:34.337Z,28.70
2018-02-04T02:39:34.301Z,30.40
2018-02-04T02:40:34.273Z,30.70
2018-02-04T02:41:34.237Z,30.10
2018-02-04T02:42:34.202Z,29.30
2018-02-04T02:43:34.173Z,32.80
2018-02-04T02:44:34.141Z,29.20
2018-02-04T02:45:34.100Z,29.10
2018-02-04T02:46:34.073Z,29.80
2018-02-04T02:47:34.350Z,36.90
2018-02-04T02:48:34.007Z,31.80
2018-02-04T02:49:33.978Z,32.50
2018-02-04T02:50:33.940Z,30.20
2018-02-04T02:51:33.903Z,30.80
2018-02-04T02:52:33.869Z,29.00
2018-02-04T02:53:33.843Z,29.90
2018-02-04T02:54:33.802Z,32.20
2018-02-04T02:55:33.766Z,31.30
2018-02-04T02:56:33.731Z,31.20
2018-02-04T02:57:33.702Z,31.90
2018-02-04T02:58:33.663Z,30.00
2018-02-04T02:59:33.896Z,27.70
2018-02-04T03:00:33.606Z,31.70
2018-02-04T03:01:33.564Z,29.60
2018-02-04T03:02:33.534Z,31.80
2018-02-04T03:03:33.502Z,31.90
2018-02-04T03:04:33.467Z,30.80
2018-02-04T03:05:33.681Z,33.40
2018-02-04T03:06:33.402Z,30.20
2018-02-04T03:07:33.359Z,31.20
2018-02-04T03:08:33.329Z,31.20
2018-02-04T03:09:33.300Z,32.50
2018-02-04T03:10:33.266Z,31.70
2018-02-04T03:11:33.232Z,28.70
2018-02-04T03:12:33.196Z,28.30
2018-02-04T03:13:33.168Z,30.30
2018-02-04T03:14:33.133Z,29.20
2018-02-04T03:15:33.102Z,28.40
2018-02-04T03:16:33.068Z,31.60
2018-02-04T03:17:33.030Z,31.40
2018-02-04T03:18:33.003Z,29.30
2018-02-04T03:19:32.964Z,29.10
2018-02-04T03:20:32.938Z,30.90
2018-02-04T03:21:32.898Z,31.60
2018-02-04T03:22:32.860Z,27.70
2018-02-04T03:23:33.123Z,29.80
2018-02-04T03:24:32.788Z,29.60
2018-02-04T03:25:32.767Z,30.00
2018-02-04T03:26:32.733Z,29.70
2018-02-04T03:27:32.689Z,27.80
2018-02-04T03:28:32.654Z,30.60
2018-02-04T03:29:32.878Z,32.70
2018-02-04T03:30:32.599Z,29.80
2018-02-04T03:31:32.564Z,30.70
2018-02-04T03:32:32.528Z,29.10
2018-02-04T03:33:32.491Z,35.10
2018-02-04T03:34:32.455Z,31.80
2018-02-04T03:35:32.424Z,30.40
2018-02-04T03:36:32.391Z,29.60
2018-02-04T03:37:32.362Z,30.90
2018-02-04T03:38:32.329Z,31.00
2018-02-04T03:39:32.296Z,28.80
2018-02-04T03:40:32.264Z,29.90
2018-02-04T03:41:32.226Z,31.70
2018-02-04T03:42:32.198Z,28.80
2018-02-04T03:43:32.161Z,28.80
2018-02-04T03:44:32.122Z,30.30
2018-02-04T03:45:32.086Z,30.80
2018-02-04T03:46:32.054Z,32.50
2018-02-04T03:47:32.026Z,27.80
2018-02-04T03:48:31.989Z,32.00
2018-02-04T03:49:31.961Z,31.10
2018-02-04T03:50:31.921Z,30.00
2018-02-04T03:51:31.898Z,31.20
2018-02-04T03:52:32.162Z,29.10
2018-02-04T03:53:31.821Z,31.70
2018-02-04T03:54:31.790Z,31.90
2018-02-04T03:55:31.752Z,30.40
2018-02-04T03:56:31.725Z,34.70
2018-02-04T03:57:31.691Z,29.10
2018-02-04T03:58:31.654Z,30.40
2018-02-04T03:59:31.624Z,28.60
2018-02-04T04:00:31.596Z,30.30
2018-02-04T04:01:31.555Z,25.10
2018-02-04T04:02:31.519Z,28.20
2018-02-04T04:03:31.491Z,28.80
2018-02-04T04:04:31.710Z,24.40
2018-02-04T04:05:31.417Z,26.40
2018-02-04T04:06:31.386Z,26.30
2018-02-04T04:07:31.362Z,27.70
2018-02-04T04:08:31.323Z,27.40
2018-02-04T04:09:31.292Z,27.80
2018-02-04T04:10:31.257Z,28.00
2018-02-04T04:11:31.218Z,24.60
2018-02-04T04:12:31.184Z,26.10
2018-02-04T04:13:31.153Z,26.90
2018-02-04T04:14:31.128Z,25.10
2018-02-04T04:15:31.082Z,23.90
2018-02-04T04:16:31.050Z,23.90
2018-02-04T04:17:31.019Z,26.60
2018-02-04T04:18:30.985Z,25.30
2018-02-04T04:19:30.958Z,22.00
2018-02-04T04:20:30.922Z,21.70
2018-02-04T04:21:30.885Z,24.10
2018-02-04T04:22:30.847Z,24.20
2018-02-04T04:23:30.826Z,21.60
2018-02-04T04:24:30.785Z,25.70
2018-02-04T04:25:30.757Z,22.30
2018-02-04T04:26:30.727Z,24.10
2018-02-04T04:27:30.986Z,22.90
2018-02-04T04:28:30.651Z,23.00
2018-02-04T04:29:30.623Z,23.00
2018-02-04T04:30:30.595Z,21.80
2018-02-04T04:31:30.554Z,21.60
2018-02-04T04:32:30.517Z,22.10
2018-02-04T04:33:30.483Z,23.80
2018-02-04T04:34:30.446Z,23.40
2018-02-04T04:35:30.429Z,27.40
2018-02-04T04:36:30.396Z,22.20
2018-02-04T04:37:30.353Z,24.90
2018-02-04T04:38:30.319Z,25.30
2018-02-04T04:39:30.539Z,23.20
2018-02-04T04:40:30.257Z,23.20
2018-02-04T04:41:30.222Z,23.80
2018-02-04T04:42:30.191Z,23.50
2018-02-04T04:43:30.148Z,23.00
2018-02-04T04:44:30.665Z,22.30
2018-02-04T04:45:30.085Z,25.20
2018-02-04T04:46:30.055Z,24.30
2018-02-04T04:47:30.020Z,25.30
2018-02-04T04:48:29.989Z,24.10
2018-02-04T04:49:29.963Z,24.50
2018-02-04T04:50:29.919Z,22.20
2018-02-04T04:51:29.886Z,23.20
2018-02-04T04:52:29.860Z,22.30
2018-02-04T04:53:29.821Z,23.10
2018-02-04T04:54:29.786Z,21.70
2018-02-04T04:55:29.753Z,22.00
2018-02-04T04:56:30.022Z,23.00
2018-02-04T04:57:29.696Z,19.90
2018-02-04T04:58:29.661Z,21.00
2018-02-04T04:59:29.622Z,20.00
2018-02-04T05:00:29.592Z,23.60
2018-02-04T05:01:29.563Z,22.10
2018-02-04T05:02:29.828Z,21.60
2018-02-04T05:03:29.515Z,21.10
2018-02-04T05:04:29.452Z,23.80
2018-02-04T05:05:29.420Z,26.70
2018-02-04T05:06:29.386Z,22.60
2018-02-04T05:07:29.353Z,22.90
2018-02-04T05:08:29.324Z,23.30
2018-02-04T05:09:29.286Z,21.40
2018-02-04T05:10:29.253Z,22.40
2018-02-04T05:11:29.226Z,21.90
2018-02-04T05:12:29.197Z,23.00
2018-02-04T05:13:29.154Z,23.40
2018-02-04T05:14:29.119Z,21.80
2018-02-04T05:15:29.093Z,21.40
2018-02-04T05:16:29.065Z,21.20
2018-02-04T05:17:29.026Z,21.10
2018-02-04T05:18:28.983Z,21.20
2018-02-04T05:19:29.203Z,22.40
2018-02-04T05:20:28.921Z,21.60
2018-02-04T05:21:28.897Z,22.40
2018-02-04T05:22:28.854Z,23.00
2018-02-04T05:23:28.819Z,23.60
2018-02-04T05:24:28.787Z,20.00
2018-02-04T05:25:28.763Z,24.40
2018-02-04T05:26:28.731Z,20.80
2018-02-04T05:27:28.688Z,23.40
2018-02-04T05:28:28.651Z,23.00
2018-02-04T05:29:28.621Z,22.00
2018-02-04T05:30:28.585Z,22.70
2018-02-04T05:31:28.856Z,21.90
2018-02-04T05:32:28.525Z,21.00
2018-02-04T05:33:28.489Z,22.10
2018-02-04T05:34:28.455Z,20.80
2018-02-04T05:35:28.422Z,21.40
2018-02-04T05:36:28.397Z,22.20
2018-02-04T05:37:28.610Z,20.70
2018-02-04T05:38:28.334Z,21.00
2018-02-04T05:39:28.284Z,20.90
2018-02-04T05:40:28.253Z,22.10
2018-02-04T05:41:28.227Z,23.10
2018-02-04T05:42:28.197Z,22.50
2018-02-04T05:43:28.153Z,22.00
2018-02-04T05:44:28.122Z,23.30
2018-02-04T05:45:28.091Z,23.10
2018-02-04T05:46:28.053Z,23.60
2018-02-04T05:47:28.035Z,20.10
2018-02-04T05:48:27.997Z,22.00
2018-02-04T05:49:27.959Z,21.80
2018-02-04T05:50:27.919Z,22.00
2018-02-04T05:51:27.891Z,20.40
2018-02-04T05:52:27.860Z,23.60
2018-02-04T05:53:27.823Z,22.00
2018-02-04T05:54:27.807Z,20.20
2018-02-04T05:55:27.756Z,21.20
2018-02-04T05:56:27.724Z,22.00
2018-02-04T05:57:27.699Z,20.60
2018-02-04T05:58:27.659Z,22.90
2018-02-04T05:59:27.618Z,21.20
2018-02-04T06:00:27.584Z,22.30
2018-02-04T06:01:27.556Z,22.20
2018-02-04T06:02:27.520Z,20.00
2018-02-04T06:03:27.490Z,21.60
2018-02-04T06:04:27.457Z,21.90
2018-02-04T06:05:27.425Z,24.50
2018-02-04T06:06:27.696Z,22.90
2018-02-04T06:07:27.361Z,20.50
2018-02-04T06:08:27.329Z,20.90
2018-02-04T06:09:27.299Z,20.60
2018-02-04T06:10:27.256Z,21.80
2018-02-04T06:11:27.222Z,21.90
2018-02-04T06:12:27.490Z,20.30
2018-02-04T06:13:27.156Z,25.30
2018-02-04T06:14:27.124Z,26.00
2018-02-04T06:15:27.093Z,22.30
2018-02-04T06:16:27.052Z,23.50
2018-02-04T06:17:27.027Z,24.40
2018-02-04T06:18:27.233Z,21.30
2018-02-04T06:19:26.955Z,25.60
2018-02-04T06:20:26.929Z,23.10
2018-02-04T06:21:26.890Z,22.30
2018-02-04T06:22:26.856Z,24.00
2018-02-04T06:23:26.823Z,23.00
2018-02-04T06:24:27.042Z,23.70
2018-02-04T06:25:26.787Z,22.70
2018-02-04T06:26:26.724Z,23.90
2018-02-04T06:27:26.690Z,25.90
2018-02-04T06:28:26.648Z,23.60
2018-02-04T06:29:26.624Z,24.20
2018-02-04T06:30:26.587Z,24.40
2018-02-04T06:31:26.554Z,24.80
2018-02-04T06:32:26.523Z,24.90
2018-02-04T06:33:26.487Z,26.00
2018-02-04T06:34:26.447Z,26.20
2018-02-04T06:35:26.441Z,24.30
2018-02-04T06:36:26.388Z,25.90
2018-02-04T06:37:26.352Z,27.90
2018-02-04T06:38:26.400Z,23.10
2018-02-04T06:39:26.287Z,26.40
2018-02-04T06:40:26.252Z,24.40
2018-02-04T06:41:26.225Z,22.90
2018-02-04T06:42:26.190Z,24.10
2018-02-04T06:43:26.187Z,26.20
2018-02-04T06:44:26.115Z,24.10
2018-02-04T06:45:26.088Z,24.60
2018-02-04T06:46:26.054Z,25.60
2018-02-04T06:47:26.015Z,23.50
2018-02-04T06:48:26.327Z,26.10
2018-02-04T06:49:25.948Z,24.20
2018-02-04T06:50:25.910Z,25.10
2018-02-04T06:51:25.889Z,26.60
2018-02-04T06:52:25.855Z,27.20
2018-02-04T06:53:25.813Z,28.40
2018-02-04T06:54:26.076Z,26.50
2018-02-04T06:55:25.750Z,25.20
2018-02-04T06:56:25.720Z,26.40
2018-02-04T06:57:25.679Z,28.60
2018-02-04T06:58:25.657Z,24.20
2018-02-04T06:59:25.612Z,28.20
2018-02-04T07:00:25.580Z,29.60
2018-02-04T07:01:25.549Z,27.70
2018-02-04T07:02:25.515Z,25.80
2018-02-04T07:03:25.475Z,26.90
2018-02-04T07:04:25.442Z,28.80
2018-02-04T07:05:25.406Z,29.20
2018-02-04T07:06:25.375Z,29.00
2018-02-04T07:07:25.350Z,27.40
2018-02-04T07:08:25.321Z,29.40
2018-02-04T07:09:25.280Z,29.30
2018-02-04T07:10:25.248Z,31.10
2018-02-04T07:11:25.211Z,32.40
2018-02-04T07:12:25.172Z,32.40
2018-02-04T07:13:25.140Z,35.50
2018-02-04T07:14:25.106Z,35.60
2018-02-04T07:15:25.069Z,31.40
2018-02-04T07:16:25.038Z,32.50
2018-02-04T07:17:25.022Z,33.50
2018-02-04T07:18:24.967Z,30.60
2018-02-04T07:19:24.931Z,32.90
2018-02-04T07:20:24.903Z,36.50
2018-02-04T07:21:24.876Z,37.10
2018-02-04T07:22:25.181Z,33.90
2018-02-04T07:23:24.813Z,35.50
2018-02-04T07:24:24.770Z,35.50
2018-02-04T07:25:24.738Z,35.20
2018-02-04T07:26:24.699Z,33.60
2018-02-04T07:27:24.663Z,33.50
2018-02-04T07:28:24.634Z,30.40
2018-02-04T07:29:24.595Z,31.40
2018-02-04T07:30:24.577Z,29.80
2018-02-04T07:31:24.529Z,28.40
2018-02-04T07:32:24.501Z,28.30
2018-02-04T07:33:24.462Z,27.70
2018-02-04T07:34:24.430Z,27.90
2018-02-04T07:35:24.401Z,27.70
2018-02-04T07:36:24.364Z,24.90
2018-02-04T07:37:24.327Z,23.30
2018-02-04T07:38:24.294Z,21.10
2018-02-04T07:39:24.258Z,21.70
2018-02-04T07:40:24.528Z,21.60
2018-02-04T07:41:24.196Z,18.70
2018-02-04T07:42:24.164Z,23.70
2018-02-04T07:43:24.125Z,20.40
2018-02-04T07:44:24.097Z,21.50
2018-02-04T07:45:24.070Z,21.50
2018-02-04T07:46:24.377Z,21.00
2018-02-04T07:47:23.998Z,20.50
2018-02-04T07:48:23.965Z,20.50
2018-02-04T07:49:23.931Z,23.40
2018-02-04T07:50:23.895Z,19.80
2018-02-04T07:51:23.872Z,20.60
2018-02-04T07:52:24.178Z,19.70
2018-02-04T07:53:23.796Z,23.00
2018-02-04T07:54:23.764Z,21.80
2018-02-04T07:55:23.728Z,21.10
2018-02-04T07:56:23.698Z,20.50
2018-02-04T07:57:23.674Z,20.30
2018-02-04T07:58:23.949Z,21.00
2018-02-04T07:59:23.595Z,17.80
2018-02-04T08:00:23.562Z,16.20
2018-02-04T08:01:23.531Z,20.70
2018-02-04T08:02:23.499Z,16.70
2018-02-04T08:03:23.462Z,16.30
2018-02-04T08:04:23.438Z,16.10
2018-02-04T08:05:23.400Z,16.70
2018-02-04T08:06:23.361Z,16.10
2018-02-04T08:07:23.333Z,16.50
2018-02-04T08:08:23.301Z,15.00
2018-02-04T08:09:23.272Z,15.70
2018-02-04T08:10:23.232Z,15.80
2018-02-04T08:11:23.197Z,13.90
2018-02-04T08:12:23.169Z,14.70
2018-02-04T08:13:23.137Z,14.00
2018-02-04T08:14:23.100Z,13.70
2018-02-04T08:15:23.069Z,14.60
2018-02-04T08:16:23.025Z,15.50
2018-02-04T08:17:22.999Z,15.40
2018-02-04T08:18:22.964Z,15.30
2018-02-04T08:19:22.938Z,14.50
2018-02-04T08:20:22.901Z,15.00
2018-02-04T08:21:22.859Z,13.90
2018-02-04T08:22:22.828Z,17.50
2018-02-04T08:23:22.804Z,15.80
2018-02-04T08:24:22.770Z,14.10
2018-02-04T08:25:22.735Z,14.10
2018-02-04T08:26:22.705Z,13.40
2018-02-04T08:27:22.666Z,14.70
2018-02-04T08:28:22.638Z,13.50
2018-02-04T08:29:22.602Z,13.10
2018-02-04T08:30:22.571Z,14.00
2018-02-04T08:31:22.527Z,13.30
2018-02-04T08:32:22.494Z,12.20
2018-02-04T08:33:22.464Z,12.60
2018-02-04T08:34:22.434Z,13.10
2018-02-04T08:35:22.410Z,12.80
2018-02-04T08:36:22.371Z,12.40
2018-02-04T08:37:22.329Z,11.10
2018-02-04T08:38:22.296Z,10.70
2018-02-04T08:39:22.516Z,11.10
2018-02-04T08:40:22.238Z,10.60
2018-02-04T08:41:22.209Z,10.40
2018-02-04T08:42:22.170Z,11.10
2018-02-04T08:43:22.134Z,13.50
2018-02-04T08:44:22.105Z,12.30
2018-02-04T08:45:22.075Z,11.50
2018-02-04T08:46:22.046Z,11.80
2018-02-04T08:47:22.003Z,12.10
2018-02-04T08:48:21.970Z,10.70
2018-02-04T08:49:21.942Z,13.50
2018-02-04T08:50:21.906Z,15.00
2018-02-04T08:51:21.875Z,13.40
2018-02-04T08:52:21.845Z,13.80
2018-02-04T08:53:21.805Z,13.70
2018-02-04T08:54:21.774Z,13.20
2018-02-04T08:55:21.747Z,12.80
2018-02-04T08:56:22.016Z,13.90
2018-02-04T08:57:21.685Z,11.80
2018-02-04T08:58:21.644Z,12.10
2018-02-04T08:59:21.607Z,12.90
2018-02-04T09:00:21.577Z,12.10
2018-02-04T09:01:21.552Z,12.20
2018-02-04T09:02:21.821Z,13.60
2018-02-04T09:03:21.479Z,13.00
2018-02-04T09:04:21.461Z,12.50
2018-02-04T09:05:21.418Z,12.60
2018-02-04T09:06:21.387Z,11.90
2018-02-04T09:07:21.364Z,13.40
2018-02-04T09:08:21.582Z,12.80
2018-02-04T09:09:21.290Z,13.80
2018-02-04T09:10:21.261Z,14.50
2018-02-04T09:11:21.224Z,12.90
2018-02-04T09:12:21.196Z,14.60
2018-02-04T09:13:21.164Z,12.50
2018-02-04T09:14:21.133Z,13.60
2018-02-04T09:15:21.106Z,14.70
2018-02-04T09:16:21.069Z,13.30
2018-02-04T09:17:21.035Z,12.10
2018-02-04T09:18:21.005Z,11.50
2018-02-04T09:19:20.973Z,13.20
2018-02-04T09:20:20.940Z,13.30
2018-02-04T09:21:20.904Z,12.90
2018-02-04T09:22:20.871Z,13.30
2018-02-04T09:23:20.843Z,13.20
2018-02-04T09:24:20.809Z,12.50
2018-02-04T09:25:20.779Z,13.00
2018-02-04T09:26:20.747Z,11.80
2018-02-04T09:27:20.721Z,13.30
2018-02-04T09:28:20.685Z,15.40
2018-02-04T09:29:20.650Z,14.20
2018-02-04T09:30:20.633Z,13.30
2018-02-04T09:31:20.584Z,13.10
2018-02-04T09:32:20.556Z,12.60
2018-02-04T09:33:20.518Z,11.30
2018-02-04T09:34:20.487Z,13.20
2018-02-04T09:35:20.468Z,12.00
2018-02-04T09:36:20.734Z,12.60
2018-02-04T09:37:20.404Z,16.00
2018-02-04T09:38:20.370Z,13.30
2018-02-04T09:39:20.340Z,13.90
2018-02-04T09:40:20.303Z,11.30
2018-02-04T09:41:20.276Z,12.70
2018-02-04T09:42:20.239Z,13.60
2018-02-04T09:43:20.209Z,14.40
2018-02-04T09:44:20.174Z,13.90
2018-02-04T09:45:20.148Z,13.20
2018-02-04T09:46:20.108Z,11.10
2018-02-04T09:47:20.084Z,12.10
2018-02-04T09:48:20.412Z,12.60
2018-02-04T09:49:20.015Z,13.10
2018-02-04T09:50:19.983Z,12.20
2018-02-04T09:51:19.956Z,11.20
2018-02-04T09:52:19.923Z,13.80
2018-02-04T09:53:19.897Z,13.00
2018-02-04T09:54:19.858Z,12.70
2018-02-04T09:55:19.824Z,11.50
2018-02-04T09:56:19.797Z,13.80
2018-02-04T09:57:19.775Z,10.70
2018-02-04T09:58:19.736Z,12.50
2018-02-04T09:59:19.709Z,10.90
2018-02-04T10:00:19.668Z,12.10
2018-02-04T10:01:19.645Z,16.20
2018-02-04T10:02:19.611Z,12.90
2018-02-04T10:03:19.573Z,12.30
2018-02-04T10:04:19.566Z,12.10
2018-02-04T10:05:19.514Z,12.20
2018-02-04T10:06:19.501Z,12.20
2018-02-04T10:07:19.447Z,10.70
2018-02-04T10:08:19.470Z,11.80
2018-02-04T10:09:19.388Z,12.10
2018-02-04T10:10:19.356Z,12.20
2018-02-04T10:11:19.316Z,12.70
2018-02-04T10:12:19.537Z,13.80
2018-02-04T10:13:19.257Z,12.50
2018-02-04T10:14:19.224Z,11.90
2018-02-04T10:15:19.194Z,13.70
2018-02-04T10:16:19.157Z,13.20
2018-02-04T10:17:19.134Z,13.50
2018-02-04T10:18:19.100Z,15.30
2018-02-04T10:19:19.065Z,17.00
2018-02-04T10:20:19.038Z,16.00
2018-02-04T10:21:19.001Z,15.90
2018-02-04T10:22:18.971Z,16.50
2018-02-04T10:23:18.942Z,17.40
2018-02-04T10:24:19.246Z,15.90
2018-02-04T10:25:18.877Z,16.30
2018-02-04T10:26:18.841Z,15.20
2018-02-04T10:27:18.808Z,16.00
2018-02-04T10:28:18.771Z,16.70
2018-02-04T10:29:18.748Z,15.50
2018-02-04T10:30:18.717Z,17.70
2018-02-04T10:31:18.685Z,20.00
2018-02-04T10:32:18.649Z,18.70
2018-02-04T10:33:18.618Z,18.50
2018-02-04T10:34:18.585Z,19.90
2018-02-04T10:35:18.552Z,20.10
2018-02-04T10:36:18.558Z,24.30
2018-02-04T10:37:18.485Z,21.10
2018-02-04T10:38:18.451Z,19.20
2018-02-04T10:39:18.433Z,24.80
2018-02-04T10:40:18.395Z,24.00
2018-02-04T10:41:18.362Z,22.00
2018-02-04T10:42:18.324Z,21.80
2018-02-04T10:43:18.343Z,24.20
2018-02-04T10:44:18.262Z,25.00
2018-02-04T10:45:18.230Z,23.40
2018-02-04T10:46:18.207Z,24.80
2018-02-04T10:47:18.168Z,25.50
2018-02-04T10:48:18.379Z,26.00
2018-02-04T10:49:18.109Z,27.80
2018-02-04T10:50:18.062Z,27.60
2018-02-04T10:51:18.040Z,26.10
2018-02-04T10:52:18.009Z,27.10
2018-02-04T10:53:17.964Z,27.20
2018-02-04T10:54:17.934Z,30.10
2018-02-04T10:55:17.907Z,28.20
2018-02-04T10:56:17.874Z,30.70
2018-02-04T10:57:17.842Z,28.50
2018-02-04T10:58:17.812Z,29.20
2018-02-04T10:59:17.772Z,29.90
2018-02-04T11:00:17.740Z,28.30
2018-02-04T11:01:17.712Z,33.10
2018-02-04T11:02:17.684Z,29.50
2018-02-04T11:03:17.640Z,25.50
2018-02-04T11:04:17.616Z,30.70
2018-02-04T11:05:17.595Z,26.80
2018-02-04T11:06:17.548Z,30.90
2018-02-04T11:07:17.515Z,28.00
2018-02-04T11:08:17.491Z,29.50
2018-02-04T11:09:17.451Z,29.30
2018-02-04T11:10:17.420Z,32.40
2018-02-04T11:11:17.687Z,24.90
2018-02-04T11:12:17.359Z,26.10
2018-02-04T11:13:17.326Z,25.70
2018-02-04T11:14:17.290Z,26.20
2018-02-04T11:15:17.255Z,25.40
2018-02-04T11:16:17.472Z,26.40
2018-02-04T11:17:17.194Z,25.60
2018-02-04T11:18:17.184Z,26.40
2018-02-04T11:19:17.130Z,26.90
2018-02-04T11:20:17.090Z,26.30
2018-02-04T11:21:17.061Z,27.90
2018-02-04T11:22:17.274Z,27.00
2018-02-04T11:23:16.999Z,26.30
2018-02-04T11:24:16.964Z,24.30
2018-02-04T11:25:16.928Z,24.50
2018-02-04T11:26:16.897Z,25.10
2018-02-04T11:27:16.874Z,26.50
2018-02-04T11:28:16.838Z,24.70
2018-02-04T11:29:16.805Z,24.60
2018-02-04T11:30:16.773Z,27.70
2018-02-04T11:31:16.738Z,24.40
2018-02-04T11:32:16.707Z,25.80
2018-02-04T11:33:16.679Z,23.50
2018-02-04T11:34:16.648Z,26.00
2018-02-04T11:35:16.613Z,24.70
2018-02-04T11:36:16.579Z,23.70
2018-02-04T11:37:16.543Z,22.60
2018-02-04T11:38:16.511Z,23.00
2018-02-04T11:39:16.480Z,22.70
2018-02-04T11:40:16.449Z,23.50
2018-02-04T11:41:16.416Z,23.80
2018-02-04T11:42:16.388Z,28.30
2018-02-04T11:43:16.350Z,23.20
2018-02-04T11:44:16.320Z,26.70
2018-02-04T11:45:16.287Z,28.40
2018-02-04T11:46:16.254Z,25.30
2018-02-04T11:47:16.224Z,25.90
2018-02-04T11:48:16.192Z,27.70
2018-02-04T11:49:16.157Z,31.40
2018-02-04T11:50:16.124Z,25.70
2018-02-04T11:51:16.344Z,29.90
2018-02-04T11:52:16.073Z,28.20
2018-02-04T11:53:16.029Z,29.10
2018-02-04T11:54:16.001Z,29.90
2018-02-04T11:55:15.994Z,29.30
2018-02-04T11:56:15.927Z,29.80
2018-02-04T11:57:16.156Z,27.10
2018-02-04T11:58:15.869Z,30.50
2018-02-04T11:59:15.829Z,27.90
2018-02-04T12:00:15.798Z,27.60
2018-02-04T12:01:15.766Z,31.00
2018-02-04T12:02:15.736Z,28.30
2018-02-04T12:03:15.710Z,27.40
2018-02-04T12:04:15.675Z,28.40
2018-02-04T12:05:15.637Z,26.20
2018-02-04T12:06:15.609Z,25.70
2018-02-04T12:07:15.579Z,28.20
2018-02-04T12:08:15.549Z,26.00
2018-02-04T12:09:15.515Z,25.60
2018-02-04T12:10:15.480Z,25.90
2018-02-04T12:11:15.444Z,21.80
2018-02-04T12:12:15.422Z,23.70
2018-02-04T12:13:15.389Z,23.00
2018-02-04T12:14:15.359Z,22.60
2018-02-04T12:15:15.833Z,21.80
2018-02-04T12:16:15.287Z,22.00
2018-02-04T12:17:15.255Z,18.20
2018-02-04T12:18:15.220Z,24.00
2018-02-04T12:19:15.196Z,22.00
2018-02-04T12:20:15.168Z,19.10
2018-02-04T12:21:15.130Z,18.20
2018-02-04T12:22:15.107Z,21.40
2018-02-04T12:23:15.067Z,18.30
2018-02-04T12:24:15.045Z,17.80
2018-02-04T12:25:14.998Z,15.90
2018-02-04T12:26:14.967Z,17.70
2018-02-04T12:27:14.930Z,15.10
2018-02-04T12:28:14.901Z,14.70
2018-02-04T12:29:14.878Z,17.20
2018-02-04T12:30:14.849Z,15.80
2018-02-04T12:31:14.805Z,14.60
2018-02-04T12:32:15.085Z,19.10
2018-02-04T12:33:14.745Z,17.40
2018-02-04T12:34:14.711Z,20.80
2018-02-04T12:35:14.686Z,20.20
2018-02-04T12:36:14.651Z,17.90
2018-02-04T12:37:14.617Z,19.80
2018-02-04T12:38:14.583Z,18.30
2018-02-04T12:39:14.553Z,19.50
2018-02-04T12:40:14.522Z,20.20
2018-02-04T12:41:14.490Z,18.80
2018-02-04T12:42:14.458Z,18.50
2018-02-04T12:43:14.422Z,17.80
2018-02-04T12:44:14.397Z,18.00
2018-02-04T12:45:14.367Z,17.90
2018-02-04T12:46:14.327Z,19.10
2018-02-04T12:47:14.291Z,18.30
2018-02-04T12:48:14.260Z,18.80
2018-02-04T12:49:14.232Z,18.90
2018-02-04T12:50:14.448Z,19.10
2018-02-04T12:51:14.171Z,16.30
2018-02-04T12:52:14.140Z,13.50